createdAt,value
2023-03-22T00:01:17.179Z,11.00
2023-03-22T00:03:44.117Z,11.00
2023-03-22T00:06:11.419Z,10.80
2023-03-22T00:08:39.133Z,10.80
2023-03-22T00:11:07.361Z,10.60
2023-03-22T00:13:36.447Z,10.90
2023-03-22T00:16:05.296Z,11.00
2023-03-22T00:18:32.394Z,10.90
2023-03-22T00:21:00.688Z,11.00
2023-03-22T00:23:29.612Z,10.50
2023-03-22T00:25:57.122Z,10.60
2023-03-22T00:28:24.980Z,10.30
2023-03-22T00:30:58.651Z,10.50
2023-03-22T00:33:25.999Z,10.60
2023-03-22T00:36:02.253Z,10.70
2023-03-22T00:38:43.755Z,10.30
2023-03-22T00:41:28.846Z,10.30
2023-03-22T00:43:55.768Z,10.20
2023-03-22T00:46:22.822Z,10.00
2023-03-22T00:48:49.837Z,10.20
2023-03-22T00:51:18.056Z,10.20
2023-03-22T00:53:45.600Z,10.40
2023-03-22T00:56:14.266Z,10.40
2023-03-22T00:58:42.610Z,10.20
2023-03-22T01:01:13.587Z,10.50
2023-03-22T01:03:42.777Z,10.40
2023-03-22T01:06:10.593Z,10.50
2023-03-22T01:08:39.041Z,10.30
2023-03-22T01:11:07.533Z,10.40
2023-03-22T01:13:41.870Z,10.20
2023-03-22T01:16:10.890Z,10.20
2023-03-22T01:18:37.899Z,10.40
2023-03-22T01:21:06.093Z,10.60
2023-03-22T01:23:33.193Z,10.40
2023-03-22T01:26:01.337Z,10.20
2023-03-22T01:28:29.336Z,9.90
2023-03-22T01:31:00.623Z,9.70
2023-03-22T01:33:27.450Z,9.60
2023-03-22T01:35:54.272Z,9.70
2023-03-22T01:38:21.661Z,9.70
2023-03-22T01:40:48.563Z,9.40
2023-03-22T01:43:17.200Z,9.80
2023-03-22T01:45:50.524Z,9.70
2023-03-22T01:48:35.823Z,9.50
2023-03-22T01:51:13.314Z,9.60
2023-03-22T01:53:50.360Z,9.50
2023-03-22T01:56:23.613Z,9.50
2023-03-22T01:58:55.022Z,9.40
2023-03-22T02:01:23.126Z,9.50
2023-03-22T02:04:10.007Z,9.50
2023-03-22T02:06:39.237Z,9.30
2023-03-22T02:09:11.125Z,9.60
2023-03-22T02:11:46.524Z,9.50
2023-03-22T02:14:34.458Z,9.40
2023-03-22T02:17:29.362Z,9.50
2023-03-22T02:20:31.459Z,9.60
2023-03-22T02:23:20.305Z,9.70
2023-03-22T02:26:27.124Z,9.40
2023-03-22T02:29:22.351Z,9.40
2023-03-22T02:32:29.175Z,9.50
2023-03-22T02:35:37.122Z,9.30
2023-03-22T02:38:37.850Z,9.40
2023-03-22T02:41:09.147Z,9.60
2023-03-22T02:44:03.745Z,9.20
2023-03-22T02:46:45.043Z,9.40
2023-03-22T02:49:35.526Z,9.50
2023-03-22T02:52:17.274Z,9.40
2023-03-22T02:54:49.582Z,9.30
2023-03-22T02:57:36.210Z,9.30
2023-03-22T03:00:11.483Z,9.50
2023-03-22T03:02:51.245Z,9.30
2023-03-22T03:05:20.732Z,9.50
2023-03-22T03:07:54.724Z,9.20
2023-03-22T03:10:23.745Z,9.30
2023-03-22T03:12:50.636Z,9.40
2023-03-22T03:15:21.278Z,9.60
2023-03-22T03:18:22.842Z,9.20
2023-03-22T03:21:17.130Z,9.50
2023-03-22T03:24:23.291Z,9.50
2023-03-22T03:27:02.535Z,9.50
2023-03-22T03:29:57.074Z,9.60
2023-03-22T03:32:35.976Z,9.50
2023-03-22T03:35:22.529Z,9.50
2023-03-22T03:38:08.814Z,9.60
2023-03-22T03:40:43.392Z,9.40
2023-03-22T03:43:11.361Z,9.50
2023-03-22T03:45:39.722Z,9.60
2023-03-22T03:48:18.530Z,9.50
2023-03-22T03:50:48.277Z,9.60
2023-03-22T03:53:15.732Z,9.70
2023-03-22T03:55:42.734Z,9.50
2023-03-22T03:58:09.989Z,9.60
2023-03-22T04:00:38.285Z,9.50
2023-03-22T04:03:06.667Z,9.70
2023-03-22T04:05:33.998Z,9.50
2023-03-22T04:08:00.892Z,9.30
2023-03-22T04:10:27.777Z,9.10
2023-03-22T04:12:54.662Z,9.20
2023-03-22T04:15:21.727Z,9.10
2023-03-22T04:17:48.658Z,8.90
2023-03-22T04:20:15.847Z,9.30
2023-03-22T04:22:42.901Z,9.10
2023-03-22T04:25:15.005Z,9.20
2023-03-22T04:27:42.806Z,9.20
2023-03-22T04:30:18.904Z,9.00
2023-03-22T04:32:47.639Z,8.90
2023-03-22T04:35:15.682Z,8.80
2023-03-22T04:37:43.082Z,8.90
2023-03-22T04:40:16.583Z,9.10
2023-03-22T04:42:45.501Z,9.00
2023-03-22T04:45:14.021Z,9.10
2023-03-22T04:47:41.116Z,8.80
2023-03-22T04:50:09.367Z,9.10
2023-03-22T04:52:36.202Z,9.00
2023-03-22T04:55:03.418Z,9.10
2023-03-22T04:57:30.407Z,9.00
2023-03-22T04:59:57.205Z,9.10
2023-03-22T05:02:24.094Z,9.30
2023-03-22T05:04:51.041Z,9.10
2023-03-22T05:07:17.886Z,9.20
2023-03-22T05:09:44.730Z,9.20
2023-03-22T05:12:12.046Z,9.00
2023-03-22T05:14:38.906Z,8.80
2023-03-22T05:17:05.903Z,9.10
2023-03-22T05:19:33.097Z,9.10
2023-03-22T05:22:02.020Z,8.90
2023-03-22T05:24:31.153Z,8.60
2023-03-22T05:27:01.036Z,8.90
2023-03-22T05:29:28.648Z,8.90
2023-03-22T05:31:55.470Z,8.80
2023-03-22T05:34:22.442Z,8.40
2023-03-22T05:36:51.463Z,8.60
2023-03-22T05:39:18.468Z,8.50
2023-03-22T05:41:46.619Z,8.70
2023-03-22T05:44:13.571Z,8.60
2023-03-22T05:46:40.473Z,8.50
2023-03-22T05:49:07.782Z,8.10
2023-03-22T05:51:41.538Z,8.30
2023-03-22T05:54:09.687Z,8.40
2023-03-22T05:56:36.963Z,8.40
2023-03-22T05:59:05.148Z,8.60
2023-03-22T06:01:33.498Z,8.70
2023-03-22T06:04:00.849Z,8.50
2023-03-22T06:06:30.393Z,8.30
2023-03-22T06:09:07.217Z,8.30
2023-03-22T06:11:42.979Z,8.70
2023-03-22T06:14:09.975Z,8.40
2023-03-22T06:16:46.074Z,8.70
2023-03-22T06:19:17.358Z,9.00
2023-03-22T06:21:44.543Z,8.90
2023-03-22T06:24:11.595Z,8.90
2023-03-22T06:26:38.442Z,8.90
2023-03-22T06:29:05.349Z,9.10
2023-03-22T06:31:32.649Z,9.40
2023-03-22T06:33:59.626Z,9.30
2023-03-22T06:36:26.514Z,9.30
2023-03-22T06:38:54.069Z,9.40
2023-03-22T06:41:27.722Z,9.70
2023-03-22T06:44:22.945Z,9.60
2023-03-22T06:46:49.946Z,9.80
2023-03-22T06:49:19.218Z,9.80
2023-03-22T06:51:46.129Z,10.00
2023-03-22T06:54:13.315Z,10.10
2023-03-22T06:56:40.359Z,10.00
2023-03-22T06:59:07.169Z,10.00
2023-03-22T07:01:34.198Z,10.30
2023-03-22T07:04:01.186Z,10.30
2023-03-22T07:06:28.944Z,10.40
2023-03-22T07:08:55.839Z,10.50
2023-03-22T07:11:22.713Z,10.60
2023-03-22T07:13:49.510Z,10.70
2023-03-22T07:16:18.129Z,10.90
2023-03-22T07:18:48.299Z,11.00
2023-03-22T07:21:15.693Z,11.20
2023-03-22T07:23:42.783Z,11.40
2023-03-22T07:26:09.902Z,11.40
2023-03-22T07:28:36.962Z,11.60
2023-03-22T07:31:07.932Z,11.80
2023-03-22T07:33:48.568Z,11.90
2023-03-22T07:36:16.885Z,12.10
2023-03-22T07:38:46.263Z,12.20
2023-03-22T07:41:28.224Z,12.30
2023-03-22T07:44:32.823Z,12.60
2023-03-22T07:47:05.129Z,12.60
2023-03-22T07:49:32.437Z,12.90
2023-03-22T07:52:04.574Z,13.10
2023-03-22T07:54:34.242Z,13.30
2023-03-22T07:57:01.834Z,13.40
2023-03-22T07:59:29.337Z,13.60
2023-03-22T08:01:56.632Z,13.80
2023-03-22T08:08:37.915Z,14.10
2023-03-22T08:11:06.630Z,14.20
2023-03-22T08:13:34.364Z,14.40
2023-03-22T08:16:01.736Z,14.50
2023-03-22T08:18:28.724Z,14.40
2023-03-22T08:20:58.146Z,14.70
2023-03-22T08:23:40.519Z,14.80
2023-03-22T08:26:14.792Z,14.90
2023-03-22T08:28:53.064Z,15.00
2023-03-22T08:31:34.294Z,15.10
2023-03-22T08:36:59.323Z,15.70
2023-03-22T08:39:52.855Z,15.90
2023-03-22T08:42:26.102Z,15.90
2023-03-22T08:44:59.331Z,15.90
2023-03-22T08:47:42.171Z,15.80
2023-03-22T08:50:27.641Z,15.80
2023-03-22T08:52:54.651Z,16.00
2023-03-22T08:55:46.163Z,16.00
2023-03-22T09:02:31.809Z,16.30
2023-03-22T09:06:05.166Z,16.50
2023-03-22T09:09:31.988Z,16.60
2023-03-22T09:12:16.635Z,16.90
2023-03-22T09:15:02.037Z,16.70
2023-03-22T09:17:49.969Z,16.40
2023-03-22T09:20:21.687Z,16.60
2023-03-22T09:22:57.588Z,16.70
2023-03-22T09:25:34.859Z,16.90
2023-03-22T09:30:53.693Z,16.80
2023-03-22T09:33:36.461Z,17.00
2023-03-22T09:36:28.635Z,17.00
2023-03-22T09:38:59.033Z,17.20
2023-03-22T09:41:39.424Z,17.30
2023-03-22T09:44:36.345Z,17.30
2023-03-22T09:47:11.250Z,17.40
2023-03-22T09:49:53.426Z,17.30
2023-03-22T09:52:21.835Z,17.80
2023-03-22T09:54:53.017Z,18.00
2023-03-22T09:57:37.458Z,17.90
2023-03-22T10:00:43.513Z,17.70
2023-03-22T10:03:54.525Z,17.70
2023-03-22T10:06:29.288Z,17.90
2023-03-22T10:09:16.535Z,17.90
2023-03-22T10:12:00.430Z,18.30
2023-03-22T10:14:51.421Z,18.50
2023-03-22T10:17:25.591Z,18.30
2023-03-22T10:19:59.940Z,18.40
2023-03-22T10:22:34.330Z,18.30
2023-03-22T10:25:03.262Z,18.10
2023-03-22T10:27:32.071Z,17.80
2023-03-22T10:30:20.943Z,17.90
2023-03-22T10:33:22.937Z,18.10
2023-03-22T10:35:51.778Z,18.10
2023-03-22T10:38:26.186Z,18.30
2023-03-22T10:40:57.147Z,18.50
2023-03-22T10:43:44.542Z,18.60
2023-03-22T10:46:20.775Z,18.30
2023-03-22T10:48:51.862Z,18.70
2023-03-22T10:51:48.449Z,18.80
2023-03-22T10:54:20.337Z,18.80
2023-03-22T10:56:47.410Z,18.90
2023-03-22T10:59:49.279Z,18.80
2023-03-22T11:02:27.610Z,19.00
2023-03-22T11:05:04.769Z,19.30
2023-03-22T11:07:45.323Z,19.20
2023-03-22T11:10:24.465Z,18.90
2023-03-22T11:12:56.979Z,19.20
2023-03-22T11:15:32.433Z,18.90
2023-03-22T11:18:15.732Z,19.10
2023-03-22T11:20:57.814Z,18.90
2023-03-22T11:23:25.945Z,19.00
2023-03-22T11:26:00.221Z,19.30
2023-03-22T11:28:35.950Z,19.20
2023-03-22T11:31:13.528Z,19.20
2023-03-22T11:33:58.810Z,19.40
2023-03-22T11:36:27.069Z,19.50
2023-03-22T11:39:05.809Z,19.30
2023-03-22T11:41:39.216Z,19.40
2023-03-22T11:44:13.537Z,19.10
2023-03-22T11:46:49.258Z,19.70
2023-03-22T11:49:17.975Z,19.50
2023-03-22T11:51:45.706Z,19.30
2023-03-22T11:54:32.645Z,19.50
2023-03-22T11:57:04.375Z,19.70
2023-03-22T11:59:39.616Z,19.70
2023-03-22T12:02:24.074Z,19.70
2023-03-22T12:05:01.966Z,20.10
2023-03-22T12:07:32.795Z,20.40
2023-03-22T12:10:10.755Z,20.10
2023-03-22T12:12:45.553Z,19.90
2023-03-22T12:15:24.137Z,20.10
2023-03-22T12:18:08.205Z,20.50
2023-03-22T12:20:53.496Z,21.20
2023-03-22T12:23:25.767Z,21.20
2023-03-22T12:26:05.933Z,21.00
2023-03-22T12:28:43.488Z,20.90
2023-03-22T12:31:21.968Z,20.20
2023-03-22T12:33:59.521Z,20.40
2023-03-22T12:36:52.504Z,21.40
2023-03-22T12:39:28.518Z,21.20
2023-03-22T12:42:03.760Z,21.30
2023-03-22T12:44:41.071Z,21.50
2023-03-22T12:47:17.148Z,21.70
2023-03-22T12:49:59.330Z,22.30
2023-03-22T12:52:45.820Z,22.60
2023-03-22T12:55:27.851Z,22.00
2023-03-22T12:57:55.648Z,22.00
2023-03-22T13:00:33.975Z,22.60
2023-03-22T13:03:16.155Z,22.50
2023-03-22T13:05:46.967Z,22.40
2023-03-22T13:08:20.567Z,22.90
2023-03-22T13:11:06.077Z,22.70
2023-03-22T13:13:43.831Z,22.30
2023-03-22T13:16:11.440Z,22.70
2023-03-22T13:18:58.645Z,22.90
2023-03-22T13:21:30.497Z,22.40
2023-03-22T13:24:06.754Z,22.70
2023-03-22T13:26:55.240Z,22.50
2023-03-22T13:29:38.441Z,22.50
2023-03-22T13:32:30.254Z,22.90
2023-03-22T13:34:57.874Z,23.40
2023-03-22T13:37:31.753Z,23.30
2023-03-22T13:40:02.322Z,22.30
2023-03-22T13:42:39.787Z,22.60
2023-03-22T13:45:34.253Z,22.10
2023-03-22T13:48:29.445Z,22.00
2023-03-22T13:50:58.845Z,22.00
2023-03-22T13:53:34.104Z,21.80
2023-03-22T13:56:07.214Z,21.90
2023-03-22T13:58:53.560Z,21.60
2023-03-22T14:01:35.381Z,21.30
2023-03-22T14:04:11.274Z,21.10
2023-03-22T14:06:51.803Z,21.50
2023-03-22T14:09:32.543Z,21.30
2023-03-22T14:12:51.330Z,21.20
2023-03-22T14:15:25.440Z,21.20
2023-03-22T14:18:13.056Z,21.60
2023-03-22T14:20:41.157Z,21.00
